Time,TemperatureF,DewpointF,PressureIn,WindDirection,WindDirectionDegrees,WindSpeedMPH,WindSpeedGustMPH,Humidity,HourlyPrecipIn,Conditions,Clouds,dailyrainin,SolarRadiationWatts/m^2,SoftwareType,DateUTC
2013-04-28 00:01:00,49.4,41.1,30.12,SE,140,1.8,3.5,73,0.00,BKN,,0.00,0.0,WeatherDisplay:10.37,2013-04-28 04:01:00,
2013-04-28 00:06:00,49.2,40.9,30.11,SE,140,1.7,3.5,73,0.00,BKN,,0.00,0.0,WeatherDisplay:10.37,2013-04-28 04:06:00,
2013-04-28 00:11:00,49.1,40.8,30.10,SE,140,2.0,3.5,73,0.00,BKN,,0.00,0.0,WeatherDisplay:10.37,2013-04-28 04:11:00,
2013-04-28 00:16:00,49.1,40.8,30.10,SE,139,2.0,3.0,73,0.00,BKN,,0.00,0.0,WeatherDisplay:10.37,2013-04-28 04:16:00,
2013-04-28 00:21:00,49.5,40.8,30.10,SE,139,2.6,4.0,72,0.00,BKN,,0.00,0.0,WeatherDisplay:10.37,2013-04-28 04:21:00,
2013-04-28 00:26:00,49.8,40.8,30.10,SE,139,2.7,3.5,71,0.00,BKN,,0.00,0.0,WeatherDisplay:10.37,2013-04-28 04:26:00,
2013-04-28 00:31:00,49.7,40.7,30.10,SE,139,2.4,3.5,71,0.00,BKN,,0.00,0.0,WeatherDisplay:10.37,2013-04-28 04:31:00,
2013-04-28 00:36:00,49.9,40.9,30.10,SE,139,2.2,3.5,71,0.00,BKN,,0.00,0.0,WeatherDisplay:10.37,2013-04-28 04:36:00,
2013-04-28 00:41:00,49.8,40.8,30.10,SE,139,2.5,3.5,71,0.00,BKN,,0.00,0.0,WeatherDisplay:10.37,2013-04-28 04:41:00,
2013-04-28 00:46:00,49.5,40.8,30.10,SE,139,1.4,2.3,72,0.00,BKN,,0.00,0.0,WeatherDisplay:10.37,2013-04-28 04:46:00,
2013-04-28 00:51:00,49.2,40.6,30.10,SE,139,2.7,3.5,72,0.00,BKN,,0.00,0.0,WeatherDisplay:10.37,2013-04-28 04:51:00,
2013-04-28 00:56:00,49.1,40.8,30.10,SE,139,2.0,2.3,73,0.00,BKN,,0.00,0.0,WeatherDisplay:10.37,2013-04-28 04:56:00,
2013-04-28 01:01:00,48.7,40.8,30.10,SE,139,1.6,3.5,74,0.00,CLR,,0.00,0.0,WeatherDisplay:10.37,2013-04-28 05:01:00,
2013-04-28 01:06:00,48.5,40.6,30.10,SE,135,1.5,2.3,74,0.00,CLR,,0.00,0.0,WeatherDisplay:10.37,2013-04-28 05:06:00,
2013-04-28 01:11:00,48.8,40.5,30.11,ESE,112,3.5,4.0,73,0.00,CLR,,0.00,0.0,WeatherDisplay:10.37,2013-04-28 05:11:00,
2013-04-28 01:16:00,48.8,40.5,30.11,SE,142,1.3,3.5,73,0.00,CLR,,0.00,0.0,WeatherDisplay:10.37,2013-04-28 05:16:00,
2013-04-28 01:21:00,48.9,40.3,30.11,SE,142,1.1,2.3,72,0.00,CLR,,0.00,0.0,WeatherDisplay:10.37,2013-04-28 05:21:00,
2013-04-28 01:26:00,49.1,40.5,30.10,SE,142,0.8,1.1,72,0.00,CLR,,0.00,0.0,WeatherDisplay:10.37,2013-04-28 05:26:00,
2013-04-28 01:31:00,48.9,40.6,30.10,SE,142,1.8,2.3,73,0.00,CLR,,0.00,0.0,WeatherDisplay:10.37,2013-04-28 05:31:00,
2013-04-28 01:36:00,48.8,40.5,30.10,SE,142,1.2,2.3,73,0.00,CLR,,0.00,0.0,WeatherDisplay:10.37,2013-04-28 05:36:00,
2013-04-28 01:41:00,48.9,40.6,30.10,SE,142,2.2,3.5,73,0.00,CLR,,0.00,0.0,WeatherDisplay:10.37,2013-04-28 05:41:00,
2013-04-28 01:46:00,49.1,39.7,30.11,SE,144,2.3,3.5,70,0.00,CLR,,0.00,0.0,WeatherDisplay:10.37,2013-04-28 05:46:00,
2013-04-28 01:51:00,49.8,39.7,30.11,SSE,162,1.7,3.5,68,0.00,CLR,,0.00,0.0,WeatherDisplay:10.37,2013-04-28 05:51:00,
2013-04-28 01:56:00,49.5,40.1,30.11,South,178,2.3,3.5,70,0.00,CLR,,0.00,0.0,WeatherDisplay:10.37,2013-04-28 05:56:00,
2013-04-28 02:01:00,49.0,40.0,30.11,South,174,1.7,2.3,71,0.00,BKN,,0.00,0.0,WeatherDisplay:10.37,2013-04-28 06:01:00,
2013-04-28 02:06:00,48.9,39.9,30.10,South,174,1.8,3.5,71,0.00,BKN,,0.00,0.0,WeatherDisplay:10.37,2013-04-28 06:06:00,
2013-04-28 02:11:00,49.2,39.5,30.10,South,169,2.1,4.0,69,0.00,BKN,,0.00,0.0,WeatherDisplay:10.37,2013-04-28 06:11:00,
2013-04-28 02:16:00,49.7,39.2,30.10,South,175,1.7,2.3,67,0.00,BKN,,0.00,0.0,WeatherDisplay:10.37,2013-04-28 06:16:00,
2013-04-28 02:21:00,49.9,39.4,30.10,South,175,1.0,3.5,67,0.00,BKN,,0.00,0.0,WeatherDisplay:10.37,2013-04-28 06:21:00,
2013-04-28 02:26:00,50.1,38.8,30.10,South,175,1.7,2.3,65,0.00,BKN,,0.00,0.0,WeatherDisplay:10.37,2013-04-28 06:26:00,
2013-04-28 02:31:00,51.3,37.9,30.09,South,175,2.0,3.5,60,0.00,BKN,,0.00,0.0,WeatherDisplay:10.37,2013-04-28 06:31:00,
2013-04-28 02:36:00,51.8,38.3,30.09,South,171,1.4,3.5,60,0.00,BKN,,0.00,0.0,WeatherDisplay:10.37,2013-04-28 06:36:00,
2013-04-28 02:41:00,51.9,38.0,30.08,South,171,1.8,3.5,59,0.00,BKN,,0.00,0.0,WeatherDisplay:10.37,2013-04-28 06:41:00,
2013-04-28 02:46:00,51.5,38.9,30.08,South,171,1.8,3.5,62,0.00,BKN,,0.00,0.0,WeatherDisplay:10.37,2013-04-28 06:46:00,
2013-04-28 02:51:00,50.9,38.3,30.08,South,171,1.9,2.3,62,0.00,BKN,,0.00,0.0,WeatherDisplay:10.37,2013-04-28 06:51:00,
2013-04-28 02:56:00,51.4,38.0,30.08,South,170,1.3,2.3,60,0.00,BKN,,0.00,0.0,WeatherDisplay:10.37,2013-04-28 06:56:00,
2013-04-28 03:01:00,51.7,37.4,30.08,South,171,1.6,3.5,58,0.00,BKN,,0.00,0.0,WeatherDisplay:10.37,2013-04-28 07:01:00,
2013-04-28 03:06:00,52.0,37.7,30.08,South,171,1.2,3.5,58,0.00,BKN,,0.00,0.0,WeatherDisplay:10.37,2013-04-28 07:06:00,
2013-04-28 03:11:00,52.4,37.6,30.08,South,171,1.4,2.3,57,0.00,BKN,,0.00,0.0,WeatherDisplay:10.37,2013-04-28 07:11:00,
2013-04-28 03:16:00,52.0,37.7,30.07,South,170,1.9,3.5,58,0.00,BKN,,0.00,0.0,WeatherDisplay:10.37,2013-04-28 07:16:00,
2013-04-28 03:21:00,51.9,37.6,30.07,South,170,1.6,2.3,58,0.00,BKN,,0.00,0.0,WeatherDisplay:10.37,2013-04-28 07:21:00,
2013-04-28 03:26:00,51.8,37.5,30.07,South,175,2.1,4.6,58,0.00,BKN,,0.00,0.0,WeatherDisplay:10.37,2013-04-28 07:26:00,
2013-04-28 03:31:00,52.2,37.0,30.07,South,175,2.4,3.5,56,0.00,BKN,,0.00,0.0,WeatherDisplay:10.37,2013-04-28 07:31:00,
2013-04-28 03:36:00,52.7,37.4,30.07,SSE,159,2.1,3.5,56,0.00,BKN,,0.00,0.0,WeatherDisplay:10.37,2013-04-28 07:36:00,
2013-04-28 03:41:00,52.6,37.8,30.07,SSE,166,1.1,3.5,57,0.00,BKN,,0.00,0.0,WeatherDisplay:10.37,2013-04-28 07:41:00,
2013-04-28 03:46:00,52.1,38.2,30.06,SSE,166,1.7,2.3,59,0.00,BKN,,0.00,0.0,WeatherDisplay:10.37,2013-04-28 07:46:00,
2013-04-28 03:51:00,52.0,38.1,30.06,SSE,168,1.2,2.3,59,0.00,BKN,,0.00,0.0,WeatherDisplay:10.37,2013-04-28 07:51:00,
2013-04-28 03:56:00,51.7,38.3,30.06,SSE,168,1.0,2.3,60,0.00,BKN,,0.00,0.0,WeatherDisplay:10.37,2013-04-28 07:56:00,
2013-04-28 04:01:00,51.3,38.3,30.06,SSE,168,1.2,2.3,61,0.00,BKN,,0.00,0.0,WeatherDisplay:10.37,2013-04-28 08:01:00,
2013-04-28 04:06:00,51.3,38.7,30.06,SSE,168,0.7,2.3,62,0.00,BKN,,0.00,0.0,WeatherDisplay:10.37,2013-04-28 08:06:00,
2013-04-28 04:11:00,51.4,38.0,30.06,SSE,168,1.1,2.3,60,0.00,BKN,,0.00,0.0,WeatherDisplay:10.37,2013-04-28 08:11:00,
2013-04-28 04:16:00,51.5,38.5,30.06,SSE,167,1.5,3.5,61,0.00,BKN,,0.00,0.0,WeatherDisplay:10.37,2013-04-28 08:16:00,
2013-04-28 04:21:00,51.6,38.6,30.06,SSE,167,1.0,2.3,61,0.00,BKN,,0.00,0.0,WeatherDisplay:10.37,2013-04-28 08:21:00,
2013-04-28 04:26:00,51.9,38.9,30.06,SSE,167,1.2,2.3,61,0.00,BKN,,0.00,0.0,WeatherDisplay:10.37,2013-04-28 08:26:00,
2013-04-28 04:31:00,52.1,39.1,30.06,SSE,167,1.1,2.3,61,0.00,BKN,,0.00,0.0,WeatherDisplay:10.37,2013-04-28 08:31:00,
2013-04-28 04:36:00,52.1,39.5,30.06,SSE,167,1.6,2.3,62,0.00,BKN,,0.00,0.0,WeatherDisplay:10.37,2013-04-28 08:36:00,
2013-04-28 04:41:00,52.0,39.8,30.06,SSE,167,0.8,2.3,63,0.00,BKN,,0.00,0.0,WeatherDisplay:10.37,2013-04-28 08:41:00,
2013-04-28 04:46:00,51.9,40.1,30.06,SSE,165,1.7,3.5,64,0.00,BKN,,0.00,0.0,WeatherDisplay:10.37,2013-04-28 08:46:00,
2013-04-28 04:51:00,51.6,41.0,30.06,SSE,150,2.3,3.5,67,0.00,BKN,,0.00,0.0,WeatherDisplay:10.37,2013-04-28 08:51:00,
2013-04-28 04:56:00,52.0,41.0,30.06,SE,144,1.2,2.3,66,0.00,BKN,,0.00,0.0,WeatherDisplay:10.37,2013-04-28 08:56:00,
2013-04-28 05:01:00,52.0,41.4,30.06,SE,141,1.9,3.5,67,0.00,OVC,,0.00,0.0,WeatherDisplay:10.37,2013-04-28 09:01:00,
2013-04-28 05:06:00,52.6,41.6,30.06,ESE,121,2.5,3.5,66,0.00,OVC,,0.00,0.0,WeatherDisplay:10.37,2013-04-28 09:06:00,
2013-04-28 05:11:00,53.2,41.7,30.05,ESE,114,2.7,3.5,65,0.00,OVC,,0.00,0.0,WeatherDisplay:10.37,2013-04-28 09:11:00,
2013-04-28 05:16:00,53.7,41.4,30.05,SE,140,2.8,5.8,63,0.00,OVC,,0.00,0.0,WeatherDisplay:10.37,2013-04-28 09:16:00,
2013-04-28 05:21:00,54.0,41.3,30.05,ESE,120,2.8,3.5,62,0.00,OVC,,0.00,0.0,WeatherDisplay:10.37,2013-04-28 09:21:00,
2013-04-28 05:26:00,54.4,40.8,30.05,ESE,115,3.5,5.8,60,0.00,OVC,,0.00,0.0,WeatherDisplay:10.37,2013-04-28 09:26:00,
2013-04-28 05:31:00,54.8,40.3,30.05,SE,133,2.6,3.5,58,0.00,OVC,,0.00,0.0,WeatherDisplay:10.37,2013-04-28 09:31:00,
2013-04-28 05:36:00,54.9,40.8,30.05,ESE,121,4.7,5.8,59,0.00,OVC,,0.00,0.0,WeatherDisplay:10.37,2013-04-28 09:36:00,
2013-04-28 05:41:00,55.1,40.6,30.05,SE,138,2.6,4.6,58,0.00,OVC,,0.00,0.0,WeatherDisplay:10.37,2013-04-28 09:41:00,
2013-04-28 05:46:00,55.3,40.8,30.04,ESE,105,4.7,6.9,58,0.00,OVC,,0.00,0.0,WeatherDisplay:10.37,2013-04-28 09:46:00,
2013-04-28 05:51:00,55.5,41.0,30.05,SE,127,1.8,3.5,58,0.00,OVC,,0.00,0.0,WeatherDisplay:10.37,2013-04-28 09:51:00,
2013-04-28 05:56:00,55.5,41.0,30.04,ESE,119,3.2,3.5,58,0.00,OVC,,0.00,0.0,WeatherDisplay:10.37,2013-04-28 09:56:00,
2013-04-28 06:01:00,55.4,41.3,30.04,ESE,119,2.0,3.5,59,0.00,OVC,,0.00,0.0,WeatherDisplay:10.37,2013-04-28 10:01:00,
2013-04-28 06:06:00,55.3,41.2,30.04,SE,130,1.6,3.5,59,0.00,OVC,,0.00,0.0,WeatherDisplay:10.37,2013-04-28 10:06:00,
2013-04-28 06:11:00,55.3,41.2,30.04,ESE,123,2.4,4.6,59,0.00,OVC,,0.00,0.0,WeatherDisplay:10.37,2013-04-28 10:11:00,
2013-04-28 06:16:00,55.3,41.2,30.04,SE,126,2.8,3.5,59,0.00,OVC,,0.00,0.0,WeatherDisplay:10.37,2013-04-28 10:16:00,
2013-04-28 06:21:00,55.3,41.2,30.04,ESE,121,2.5,3.5,59,0.00,OVC,,0.00,0.0,WeatherDisplay:10.37,2013-04-28 10:21:00,
2013-04-28 06:26:00,55.1,41.0,30.04,ESE,113,2.2,3.5,59,0.00,OVC,,0.00,0.0,WeatherDisplay:10.37,2013-04-28 10:26:00,
2013-04-28 06:31:00,55.1,41.0,30.04,SE,130,3.3,4.6,59,0.00,OVC,,0.00,0.0,WeatherDisplay:10.37,2013-04-28 10:31:00,
2013-04-28 06:36:00,55.1,41.0,30.03,ESE,114,3.5,4.6,59,0.00,OVC,,0.00,0.0,WeatherDisplay:10.37,2013-04-28 10:36:00,
2013-04-28 06:41:00,55.3,41.6,30.03,SSE,149,2.4,3.5,60,0.00,OVC,,0.00,0.0,WeatherDisplay:10.37,2013-04-28 10:41:00,
2013-04-28 06:46:00,55.3,41.6,30.03,SE,131,2.8,4.6,60,0.00,OVC,,0.00,5.0,WeatherDisplay:10.37,2013-04-28 10:46:00,
2013-04-28 06:51:00,55.3,42.1,30.03,ESE,111,3.3,4.6,61,0.00,OVC,,0.00,9.0,WeatherDisplay:10.37,2013-04-28 10:51:00,
2013-04-28 06:56:00,55.2,42.4,30.03,SE,146,4.1,5.0,62,0.00,OVC,,0.00,9.0,WeatherDisplay:10.37,2013-04-28 10:56:00,
2013-04-28 07:01:00,55.5,42.3,30.04,ESE,115,4.4,6.9,61,0.00,OVC,,0.00,11.0,WeatherDisplay:10.37,2013-04-28 11:01:00,
2013-04-28 07:06:00,55.6,41.9,30.03,ESE,105,5.2,8.1,60,0.00,OVC,,0.00,12.0,WeatherDisplay:10.37,2013-04-28 11:06:00,
2013-04-28 07:11:00,55.6,42.4,30.03,ESE,120,3.5,4.6,61,0.00,OVC,,0.00,16.0,WeatherDisplay:10.37,2013-04-28 11:11:00,
2013-04-28 07:16:00,55.5,41.8,30.03,SSE,152,3.9,6.0,60,0.00,OVC,,0.00,21.0,WeatherDisplay:10.37,2013-04-28 11:16:00,
2013-04-28 07:21:00,55.5,41.8,30.03,ESE,123,4.8,7.0,60,0.00,OVC,,0.00,23.0,WeatherDisplay:10.37,2013-04-28 11:21:00,
2013-04-28 07:26:00,55.5,41.8,30.03,SSW,207,1.7,3.5,60,0.00,OVC,,0.00,23.0,WeatherDisplay:10.37,2013-04-28 11:26:00,
2013-04-28 07:31:00,55.4,41.7,30.03,ESE,115,4.3,4.6,60,0.00,OVC,,0.00,21.0,WeatherDisplay:10.37,2013-04-28 11:31:00,
2013-04-28 07:36:00,55.4,42.2,30.03,SE,145,2.8,2.8,61,0.00,OVC,,0.00,21.0,WeatherDisplay:10.37,2013-04-28 11:36:00,
2013-04-28 07:41:00,55.4,41.7,30.03,SE,124,4.9,8.0,60,0.00,OVC,,0.00,23.0,WeatherDisplay:10.37,2013-04-28 11:41:00,
2013-04-28 07:46:00,55.6,41.9,30.03,SE,127,3.9,6.9,60,0.00,OVC,,0.00,26.0,WeatherDisplay:10.37,2013-04-28 11:46:00,
2013-04-28 07:51:00,55.8,42.1,30.03,ESE,112,4.1,9.2,60,0.00,OVC,,0.00,28.0,WeatherDisplay:10.37,2013-04-28 11:51:00,
2013-04-28 07:56:00,55.9,42.2,30.03,SE,133,5.0,6.9,60,0.00,OVC,,0.00,30.0,WeatherDisplay:10.37,2013-04-28 11:56:00,
2013-04-28 08:01:00,56.0,42.3,30.03,ESE,111,3.6,6.9,60,0.00,OVC,,0.00,35.0,WeatherDisplay:10.37,2013-04-28 12:01:00,
2013-04-28 08:06:00,56.2,42.5,30.03,SE,142,4.3,9.2,60,0.00,OVC,,0.00,40.0,WeatherDisplay:10.37,2013-04-28 12:06:00,
2013-04-28 08:11:00,56.3,42.6,30.03,ESE,121,1.8,3.5,60,0.00,OVC,,0.00,47.0,WeatherDisplay:10.37,2013-04-28 12:11:00,
2013-04-28 08:16:00,56.4,42.7,30.03,ESE,123,4.3,7.0,60,0.00,OVC,,0.00,51.0,WeatherDisplay:10.37,2013-04-28 12:16:00,
2013-04-28 08:21:00,56.7,43.0,30.03,ESE,111,2.5,6.9,60,0.00,OVC,,0.00,49.0,WeatherDisplay:10.37,2013-04-28 12:21:00,
2013-04-28 08:26:00,56.7,43.0,30.03,SE,126,2.6,5.8,60,0.00,OVC,,0.00,47.0,WeatherDisplay:10.37,2013-04-28 12:26:00,
2013-04-28 08:31:00,56.8,43.1,30.02,SE,134,3.0,6.9,60,0.00,OVC,,0.00,44.0,WeatherDisplay:10.37,2013-04-28 12:31:00,
2013-04-28 08:36:00,56.8,43.1,30.02,SE,130,5.1,7.0,60,0.00,OVC,,0.00,42.0,WeatherDisplay:10.37,2013-04-28 12:36:00,
2013-04-28 08:41:00,56.8,43.5,30.02,SE,135,3.9,4.6,61,0.00,OVC,,0.00,49.0,WeatherDisplay:10.37,2013-04-28 12:41:00,
2013-04-28 08:46:00,56.9,43.2,30.02,SE,138,3.8,5.8,60,0.00,OVC,,0.00,62.0,WeatherDisplay:10.37,2013-04-28 12:46:00,
2013-04-28 08:51:00,57.0,43.2,30.02,SSE,148,3.8,3.8,60,0.00,OVC,,0.00,69.0,WeatherDisplay:10.37,2013-04-28 12:51:00,
2013-04-28 08:56:00,57.2,43.9,30.02,SSE,157,5.3,10.4,61,0.00,OVC,,0.00,74.0,WeatherDisplay:10.37,2013-04-28 12:56:00,
2013-04-28 09:01:00,57.4,44.5,30.02,SE,130,2.7,5.8,62,0.00,OVC,,0.00,83.0,WeatherDisplay:10.37,2013-04-28 13:01:00,
2013-04-28 09:06:00,57.4,44.1,30.02,SE,128,6.5,7.0,61,0.00,OVC,,0.00,83.0,WeatherDisplay:10.37,2013-04-28 13:06:00,
2013-04-28 09:11:00,57.4,44.9,30.02,SE,132,5.1,5.1,63,0.00,OVC,,0.00,77.0,WeatherDisplay:10.37,2013-04-28 13:11:00,
2013-04-28 09:16:00,57.3,45.2,30.02,SSE,150,3.3,4.6,64,0.00,OVC,,0.00,77.0,WeatherDisplay:10.37,2013-04-28 13:16:00,
2013-04-28 09:21:00,57.2,45.5,30.02,SE,139,5.3,8.1,65,0.00,OVC,,0.00,81.0,WeatherDisplay:10.37,2013-04-28 13:21:00,
2013-04-28 09:26:00,57.1,45.4,30.02,SE,139,2.7,4.6,65,0.00,OVC,,0.00,79.0,WeatherDisplay:10.37,2013-04-28 13:26:00,
2013-04-28 09:31:00,57.0,45.7,30.01,SE,128,5.2,8.1,66,0.00,OVC,,0.00,77.0,WeatherDisplay:10.37,2013-04-28 13:31:00,
2013-04-28 09:36:00,57.1,45.8,30.01,SSW,196,5.1,8.1,66,0.00,OVC,,0.00,88.0,WeatherDisplay:10.37,2013-04-28 13:36:00,
2013-04-28 09:41:00,57.0,46.1,30.01,SE,136,3.0,8.0,67,0.00,OVC,,0.00,77.0,WeatherDisplay:10.37,2013-04-28 13:41:00,
2013-04-28 09:46:00,56.9,46.4,30.02,ESE,123,5.6,9.0,68,0.00,OVC,,0.00,77.0,WeatherDisplay:10.37,2013-04-28 13:46:00,
2013-04-28 09:51:00,56.7,46.6,30.01,South,182,4.7,6.9,69,0.00,OVC,,0.00,93.0,WeatherDisplay:10.37,2013-04-28 13:51:00,
2013-04-28 09:56:00,56.5,47.2,30.01,SSE,167,7.1,11.5,71,0.00,OVC,,0.00,97.0,WeatherDisplay:10.37,2013-04-28 13:56:00,
2013-04-28 10:01:00,56.4,47.5,30.01,SE,132,3.3,8.1,72,0.00,-RA,,0.00,97.0,WeatherDisplay:10.37,2013-04-28 14:01:00,
2013-04-28 10:06:00,56.4,47.5,30.01,SSE,156,3.6,8.1,72,0.00,-RA,,0.00,104.0,WeatherDisplay:10.37,2013-04-28 14:06:00,
2013-04-28 10:11:00,56.4,48.2,30.01,SE,141,4.2,5.8,74,0.00,-RA,,0.00,88.0,WeatherDisplay:10.37,2013-04-28 14:11:00,
2013-04-28 10:16:00,56.2,47.7,30.01,SSE,158,7.9,13.8,73,0.00,-RA,,0.00,90.0,WeatherDisplay:10.37,2013-04-28 14:16:00,
2013-04-28 10:21:00,55.9,48.1,30.01,SE,137,5.9,9.2,75,0.00,-RA,,0.00,98.0,WeatherDisplay:10.37,2013-04-28 14:21:00,
2013-04-28 10:26:00,55.4,48.3,30.01,SSE,161,6.7,8.1,77,0.00,-RA,,0.00,100.0,WeatherDisplay:10.37,2013-04-28 14:26:00,
2013-04-28 10:31:00,55.0,48.9,30.01,SSE,161,4.3,13.8,80,0.00,-RA,,0.00,105.0,WeatherDisplay:10.37,2013-04-28 14:31:00,
2013-04-28 10:36:00,54.6,49.2,30.00,East,100,6.1,10.4,82,0.00,-RA,,0.01,97.0,WeatherDisplay:10.37,2013-04-28 14:36:00,
2013-04-28 10:41:00,54.3,48.9,30.00,ESE,117,5.1,13.8,82,0.01,-RA,,0.01,77.0,WeatherDisplay:10.37,2013-04-28 14:41:00,
2013-04-28 10:46:00,54.1,49.4,30.00,SSE,150,6.0,9.2,84,0.01,-RA,,0.01,69.0,WeatherDisplay:10.37,2013-04-28 14:46:00,
2013-04-28 10:51:00,53.9,49.5,30.00,SSE,148,8.9,11.5,85,0.02,-RA,,0.02,72.0,WeatherDisplay:10.37,2013-04-28 14:51:00,
2013-04-28 10:56:00,53.7,49.6,30.00,South,178,7.2,10.4,86,0.02,-RA,,0.02,83.0,WeatherDisplay:10.37,2013-04-28 14:56:00,
2013-04-28 11:01:00,53.5,49.7,29.99,SSE,153,5.7,8.1,87,0.02,-RA,,0.02,70.0,WeatherDisplay:10.37,2013-04-28 15:01:00,
2013-04-28 11:06:00,53.4,49.9,29.99,SE,124,4.8,11.5,88,0.03,-RA,,0.03,72.0,WeatherDisplay:10.37,2013-04-28 15:06:00,
2013-04-28 11:11:00,53.4,49.9,29.99,SE,143,6.3,9.2,88,0.03,-RA,,0.03,109.0,WeatherDisplay:10.37,2013-04-28 15:11:00,
2013-04-28 11:16:00,53.5,50.3,29.99,SSE,151,8.4,12.0,89,0.03,-RA,,0.03,141.0,WeatherDisplay:10.37,2013-04-28 15:16:00,
2013-04-28 11:21:00,53.7,50.5,29.99,SSW,200,6.2,11.5,89,0.03,-RA,,0.03,162.0,WeatherDisplay:10.37,2013-04-28 15:21:00,
2013-04-28 11:26:00,53.9,50.7,29.99,SSE,150,8.2,11.5,89,0.03,-RA,,0.03,176.0,WeatherDisplay:10.37,2013-04-28 15:26:00,
2013-04-28 11:31:00,54.1,50.9,29.99,SSE,167,5.2,8.0,89,0.03,-RA,,0.03,178.0,WeatherDisplay:10.37,2013-04-28 15:31:00,
2013-04-28 11:36:00,54.2,51.3,29.99,SE,137,7.0,11.5,90,0.04,-RA,,0.04,165.0,WeatherDisplay:10.37,2013-04-28 15:36:00,
2013-04-28 11:41:00,54.2,51.0,29.99,SE,128,3.7,8.1,89,0.03,-RA,,0.04,176.0,WeatherDisplay:10.37,2013-04-28 15:41:00,
2013-04-28 11:46:00,54.3,51.4,29.99,ESE,117,7.1,10.4,90,0.03,-RA,,0.04,179.0,WeatherDisplay:10.37,2013-04-28 15:46:00,
2013-04-28 11:51:00,54.4,51.5,29.99,SE,132,5.5,11.0,90,0.02,-RA,,0.04,142.0,WeatherDisplay:10.37,2013-04-28 15:51:00,
2013-04-28 11:56:00,54.4,51.5,29.98,SE,130,5.4,10.4,90,0.03,-RA,,0.05,163.0,WeatherDisplay:10.37,2013-04-28 15:56:00,
2013-04-28 12:01:00,54.4,51.5,29.98,SE,146,7.2,8.1,90,0.03,-RA,,0.05,155.0,WeatherDisplay:10.37,2013-04-28 16:01:00,
2013-04-28 12:06:00,54.4,51.5,29.99,South,182,4.7,8.1,90,0.02,-RA,,0.05,125.0,WeatherDisplay:10.37,2013-04-28 16:06:00,
2013-04-28 12:11:00,54.4,51.8,29.99,SE,134,5.1,10.4,91,0.02,-RA,,0.05,109.0,WeatherDisplay:10.37,2013-04-28 16:11:00,
2013-04-28 12:16:00,54.4,51.5,29.99,SSE,149,5.5,11.5,90,0.02,-RA,,0.06,95.0,WeatherDisplay:10.37,2013-04-28 16:16:00,
2013-04-28 12:21:00,54.4,51.5,29.99,SE,138,2.6,8.1,90,0.03,-RA,,0.06,105.0,WeatherDisplay:10.37,2013-04-28 16:21:00,
2013-04-28 12:26:00,54.4,51.8,29.98,ESE,107,2.6,6.9,91,0.03,-RA,,0.06,107.0,WeatherDisplay:10.37,2013-04-28 16:26:00,
2013-04-28 12:31:00,54.4,51.8,29.98,ESE,122,4.2,4.6,91,0.03,-RA,,0.06,90.0,WeatherDisplay:10.37,2013-04-28 16:31:00,
2013-04-28 12:36:00,54.4,51.8,29.98,SE,130,5.3,7.0,91,0.02,-RA,,0.06,86.0,WeatherDisplay:10.37,2013-04-28 16:36:00,
2013-04-28 12:41:00,54.4,51.8,29.98,SE,128,4.0,8.1,91,0.02,-RA,,0.06,74.0,WeatherDisplay:10.37,2013-04-28 16:41:00,
2013-04-28 12:46:00,54.4,51.8,29.97,SSE,158,3.3,6.9,91,0.03,-RA,,0.07,84.0,WeatherDisplay:10.37,2013-04-28 16:46:00,
2013-04-28 12:51:00,54.4,51.8,29.97,SE,129,3.8,8.1,91,0.04,-RA,,0.08,84.0,WeatherDisplay:10.37,2013-04-28 16:51:00,
2013-04-28 12:56:00,54.4,52.1,29.97,SE,130,5.1,8.1,92,0.03,-RA,,0.09,97.0,WeatherDisplay:10.37,2013-04-28 16:56:00,
2013-04-28 13:01:00,54.4,52.1,29.97,SSE,153,5.4,6.9,92,0.04,-RA,,0.10,105.0,WeatherDisplay:10.37,2013-04-28 17:01:00,
2013-04-28 13:06:00,54.5,52.5,29.96,SE,140,4.4,6.9,93,0.05,-RA,,0.10,142.0,WeatherDisplay:10.37,2013-04-28 17:06:00,
2013-04-28 13:11:00,54.6,52.3,29.96,SSE,163,7.2,10.4,92,0.06,-RA,,0.11,167.0,WeatherDisplay:10.37,2013-04-28 17:11:00,
2013-04-28 13:16:00,54.8,52.8,29.96,SSE,158,6.9,6.9,93,0.06,-RA,,0.11,153.0,WeatherDisplay:10.37,2013-04-28 17:16:00,
2013-04-28 13:21:00,54.9,52.6,29.96,SSE,161,5.5,9.2,92,0.06,-RA,,0.12,156.0,WeatherDisplay:10.37,2013-04-28 17:21:00,
2013-04-28 13:26:00,55.1,52.8,29.96,SE,126,5.4,8.1,92,0.06,-RA,,0.12,185.0,WeatherDisplay:10.37,2013-04-28 17:26:00,
2013-04-28 13:31:00,55.2,52.9,29.96,SE,144,5.2,8.1,92,0.06,-RA,,0.12,172.0,WeatherDisplay:10.37,2013-04-28 17:31:00,
2013-04-28 13:36:00,55.3,53.0,29.95,ESE,107,7.9,8.1,92,0.06,-RA,,0.12,156.0,WeatherDisplay:10.37,2013-04-28 17:36:00,
2013-04-28 13:41:00,55.5,53.2,29.95,SE,140,4.1,8.1,92,0.06,-RA,,0.12,141.0,WeatherDisplay:10.37,2013-04-28 17:41:00,
2013-04-28 13:46:00,55.5,53.2,29.95,ESE,118,4.3,5.0,92,0.05,-RA,,0.12,158.0,WeatherDisplay:10.37,2013-04-28 17:46:00,
2013-04-28 13:51:00,55.6,53.6,29.95,SE,125,3.9,6.0,93,0.04,-RA,,0.12,153.0,WeatherDisplay:10.37,2013-04-28 17:51:00,
2013-04-28 13:56:00,55.5,53.2,29.95,SE,132,5.9,7.0,92,0.05,-RA,,0.13,151.0,WeatherDisplay:10.37,2013-04-28 17:56:00,
2013-04-28 14:01:00,55.5,53.2,29.95,SSE,149,5.6,8.0,92,0.04,-RA,,0.13,151.0,WeatherDisplay:10.37,2013-04-28 18:01:00,
2013-04-28 14:06:00,55.5,53.2,29.95,SSE,155,4.4,6.9,92,0.04,-RA,,0.14,141.0,WeatherDisplay:10.37,2013-04-28 18:06:00,
2013-04-28 14:11:00,55.5,53.2,29.95,SE,130,3.8,6.9,92,0.03,-RA,,0.14,123.0,WeatherDisplay:10.37,2013-04-28 18:11:00,
2013-04-28 14:16:00,55.5,53.2,29.95,SSW,192,3.8,6.0,92,0.04,-RA,,0.15,100.0,WeatherDisplay:10.37,2013-04-28 18:16:00,
2013-04-28 14:21:00,55.5,53.2,29.95,SE,145,4.2,10.4,92,0.04,-RA,,0.16,93.0,WeatherDisplay:10.37,2013-04-28 18:21:00,
2013-04-28 14:26:00,55.5,53.2,29.94,SSW,206,2.5,4.6,92,0.04,-RA,,0.16,123.0,WeatherDisplay:10.37,2013-04-28 18:26:00,
2013-04-28 14:31:00,55.7,53.7,29.94,ESE,120,2.9,5.0,93,0.04,-RA,,0.16,137.0,WeatherDisplay:10.37,2013-04-28 18:31:00,
2013-04-28 14:36:00,55.8,53.8,29.94,ESE,121,3.1,6.9,93,0.04,-RA,,0.16,120.0,WeatherDisplay:10.37,2013-04-28 18:36:00,
2013-04-28 14:41:00,55.9,53.9,29.93,SSE,148,4.2,6.9,93,0.04,-RA,,0.16,93.0,WeatherDisplay:10.37,2013-04-28 18:41:00,
2013-04-28 14:46:00,55.7,53.7,29.93,ESE,119,3.9,5.0,93,0.05,-RA,,0.17,84.0,WeatherDisplay:10.37,2013-04-28 18:46:00,
2013-04-28 14:51:00,55.7,53.7,29.93,SSE,148,5.8,9.2,93,0.05,-RA,,0.18,118.0,WeatherDisplay:10.37,2013-04-28 18:51:00,
2013-04-28 14:56:00,55.7,53.7,29.93,SSE,161,5.1,6.0,93,0.05,-RA,,0.18,116.0,WeatherDisplay:10.37,2013-04-28 18:56:00,
2013-04-28 15:01:00,55.8,53.8,29.93,SE,141,4.0,6.0,93,0.05,-RA,,0.18,114.0,WeatherDisplay:10.37,2013-04-28 19:01:00,
2013-04-28 15:06:00,55.8,53.8,29.93,South,178,6.0,6.9,93,0.04,-RA,,0.18,125.0,WeatherDisplay:10.37,2013-04-28 19:06:00,
2013-04-28 15:11:00,55.9,53.9,29.93,South,171,2.6,4.6,93,0.04,-RA,,0.18,100.0,WeatherDisplay:10.37,2013-04-28 19:11:00,
2013-04-28 15:16:00,56.0,54.0,29.93,SE,144,5.6,5.8,93,0.03,-RA,,0.18,72.0,WeatherDisplay:10.37,2013-04-28 19:16:00,
2013-04-28 15:21:00,55.9,53.9,29.93,SE,144,3.4,8.1,93,0.02,-RA,,0.18,62.0,WeatherDisplay:10.37,2013-04-28 19:21:00,
2013-04-28 15:26:00,55.9,53.9,29.93,SE,139,5.3,10.4,93,0.02,-RA,,0.18,67.0,WeatherDisplay:10.37,2013-04-28 19:26:00,
2013-04-28 15:31:00,55.9,53.9,29.93,SSE,163,3.5,5.8,93,0.02,-RA,,0.18,93.0,WeatherDisplay:10.37,2013-04-28 19:31:00,
2013-04-28 15:36:00,56.0,54.0,29.93,South,179,3.5,8.1,93,0.02,-RA,,0.18,111.0,WeatherDisplay:10.37,2013-04-28 19:36:00,
2013-04-28 15:41:00,56.2,54.2,29.92,SE,145,3.3,5.8,93,0.02,-RA,,0.18,148.0,WeatherDisplay:10.37,2013-04-28 19:41:00,
2013-04-28 15:46:00,56.3,54.3,29.92,SSW,200,3.8,9.2,93,0.01,-RA,,0.18,195.0,WeatherDisplay:10.37,2013-04-28 19:46:00,
2013-04-28 15:51:00,56.7,55.0,29.92,SE,143,2.4,3.5,94,0.01,-RA,,0.18,227.0,WeatherDisplay:10.37,2013-04-28 19:51:00,
2013-04-28 15:56:00,56.9,54.9,29.92,South,169,3.3,7.0,93,0.00,-RA,,0.18,142.0,WeatherDisplay:10.37,2013-04-28 19:56:00,
2013-04-28 16:01:00,56.9,54.9,29.92,SSE,168,4.1,6.9,93,0.00,OVC,,0.18,141.0,WeatherDisplay:10.37,2013-04-28 20:01:00,
2013-04-28 16:06:00,57.1,55.1,29.92,SSE,158,6.0,6.0,93,0.00,OVC,,0.18,179.0,WeatherDisplay:10.37,2013-04-28 20:06:00,
2013-04-28 16:11:00,57.2,54.9,29.92,South,188,4.4,5.8,92,0.00,OVC,,0.18,113.0,WeatherDisplay:10.37,2013-04-28 20:11:00,
2013-04-28 16:16:00,57.2,54.6,29.92,South,188,6.0,9.2,91,0.00,OVC,,0.18,116.0,WeatherDisplay:10.37,2013-04-28 20:16:00,
2013-04-28 16:21:00,57.1,54.5,29.92,SE,140,2.7,7.0,91,0.00,OVC,,0.18,76.0,WeatherDisplay:10.37,2013-04-28 20:21:00,
2013-04-28 16:26:00,57.1,54.5,29.91,SSW,206,4.5,6.9,91,0.00,OVC,,0.18,63.0,WeatherDisplay:10.37,2013-04-28 20:26:00,
2013-04-28 16:31:00,57.1,54.5,29.91,South,179,3.9,8.1,91,0.00,OVC,,0.18,95.0,WeatherDisplay:10.37,2013-04-28 20:31:00,
2013-04-28 16:36:00,57.1,54.5,29.91,SSE,150,4.7,8.1,91,0.00,OVC,,0.18,91.0,WeatherDisplay:10.37,2013-04-28 20:36:00,
2013-04-28 16:41:00,57.2,54.6,29.91,SSE,165,2.9,6.9,91,0.00,OVC,,0.18,88.0,WeatherDisplay:10.37,2013-04-28 20:41:00,
2013-04-28 16:46:00,57.2,54.6,29.91,SSE,168,8.7,11.5,91,0.00,OVC,,0.18,74.0,WeatherDisplay:10.37,2013-04-28 20:46:00,
2013-04-28 16:51:00,57.2,54.6,29.91,South,169,4.3,4.3,91,0.00,OVC,,0.18,90.0,WeatherDisplay:10.37,2013-04-28 20:51:00,
2013-04-28 16:56:00,57.3,54.7,29.90,SE,137,2.5,6.0,91,0.00,OVC,,0.18,114.0,WeatherDisplay:10.37,2013-04-28 20:56:00,
2013-04-28 17:01:00,57.5,54.9,29.90,SSE,167,2.7,3.5,91,0.00,OVC,,0.18,127.0,WeatherDisplay:10.37,2013-04-28 21:01:00,
2013-04-28 17:06:00,57.6,54.7,29.90,SSE,163,3.3,8.1,90,0.00,OVC,,0.18,116.0,WeatherDisplay:10.37,2013-04-28 21:06:00,
2013-04-28 17:11:00,57.6,54.7,29.90,SSE,167,6.0,9.2,90,0.00,OVC,,0.18,167.0,WeatherDisplay:10.37,2013-04-28 21:11:00,
2013-04-28 17:16:00,57.7,54.8,29.90,South,172,5.4,9.2,90,0.00,OVC,,0.18,109.0,WeatherDisplay:10.37,2013-04-28 21:16:00,
2013-04-28 17:21:00,57.8,55.2,29.90,South,188,4.9,8.1,91,0.00,OVC,,0.18,95.0,WeatherDisplay:10.37,2013-04-28 21:21:00,
2013-04-28 17:26:00,57.8,54.9,29.90,SSE,155,4.4,8.1,90,0.00,OVC,,0.18,90.0,WeatherDisplay:10.37,2013-04-28 21:26:00,
2013-04-28 17:31:00,57.6,54.7,29.89,SSE,163,3.3,8.1,90,0.00,OVC,,0.18,105.0,WeatherDisplay:10.37,2013-04-28 21:31:00,
2013-04-28 17:36:00,57.5,54.9,29.89,SSE,151,3.4,8.1,91,0.00,OVC,,0.18,114.0,WeatherDisplay:10.37,2013-04-28 21:36:00,
2013-04-28 17:41:00,57.3,55.0,29.89,South,186,5.9,7.0,92,0.00,OVC,,0.18,113.0,WeatherDisplay:10.37,2013-04-28 21:41:00,
2013-04-28 17:46:00,57.3,55.0,29.89,South,187,3.9,8.1,92,0.00,OVC,,0.18,77.0,WeatherDisplay:10.37,2013-04-28 21:46:00,
2013-04-28 17:51:00,57.3,55.0,29.89,SW,214,3.3,6.9,92,0.00,OVC,,0.18,79.0,WeatherDisplay:10.37,2013-04-28 21:51:00,
2013-04-28 17:56:00,57.2,54.9,29.89,SE,134,4.9,6.9,92,0.00,OVC,,0.18,100.0,WeatherDisplay:10.37,2013-04-28 21:56:00,
2013-04-28 18:01:00,57.2,54.9,29.89,SSE,159,3.0,6.9,92,0.00,-RA,,0.18,130.0,WeatherDisplay:10.37,2013-04-28 22:01:00,
2013-04-28 18:06:00,57.5,55.5,29.89,South,179,5.1,7.0,93,0.00,-RA,,0.18,148.0,WeatherDisplay:10.37,2013-04-28 22:06:00,
2013-04-28 18:11:00,57.6,55.3,29.89,South,173,5.4,6.0,92,0.00,-RA,,0.18,127.0,WeatherDisplay:10.37,2013-04-28 22:11:00,
2013-04-28 18:16:00,57.7,55.4,29.89,SW,218,4.1,6.9,92,0.00,-RA,,0.18,111.0,WeatherDisplay:10.37,2013-04-28 22:16:00,
2013-04-28 18:21:00,57.7,55.1,29.89,South,181,6.0,11.5,91,0.00,-RA,,0.18,72.0,WeatherDisplay:10.37,2013-04-28 22:21:00,
2013-04-28 18:26:00,57.7,55.1,29.89,South,191,6.3,10.4,91,0.00,-RA,,0.18,76.0,WeatherDisplay:10.37,2013-04-28 22:26:00,
2013-04-28 18:31:00,57.7,55.1,29.89,SSE,157,5.4,11.5,91,0.00,-RA,,0.18,58.0,WeatherDisplay:10.37,2013-04-28 22:31:00,
2013-04-28 18:36:00,57.7,55.1,29.89,SSE,161,5.7,5.7,91,0.00,-RA,,0.18,44.0,WeatherDisplay:10.37,2013-04-28 22:36:00,
2013-04-28 18:41:00,57.7,55.1,29.89,ESE,114,5.4,10.4,91,0.00,-RA,,0.18,56.0,WeatherDisplay:10.37,2013-04-28 22:41:00,
2013-04-28 18:46:00,57.8,55.2,29.88,SSE,156,6.7,9.2,91,0.00,-RA,,0.18,107.0,WeatherDisplay:10.37,2013-04-28 22:46:00,
2013-04-28 18:51:00,57.9,55.3,29.88,South,173,3.0,5.8,91,0.00,-RA,,0.18,70.0,WeatherDisplay:10.37,2013-04-28 22:51:00,
2013-04-28 18:56:00,57.9,55.3,29.88,SSE,153,6.4,6.9,91,0.00,-RA,,0.18,58.0,WeatherDisplay:10.37,2013-04-28 22:56:00,
2013-04-28 19:01:00,57.9,55.3,29.89,SE,141,4.3,5.8,91,0.00,OVC,,0.18,42.0,WeatherDisplay:10.37,2013-04-28 23:01:00,
2013-04-28 19:06:00,57.9,55.3,29.89,SSW,196,4.4,7.0,91,0.00,OVC,,0.18,32.0,WeatherDisplay:10.37,2013-04-28 23:06:00,
2013-04-28 19:11:00,57.9,55.0,29.88,SE,143,7.1,9.0,90,0.00,OVC,,0.18,35.0,WeatherDisplay:10.37,2013-04-28 23:11:00,
2013-04-28 19:16:00,57.9,55.0,29.89,SSE,155,4.2,5.8,90,0.00,OVC,,0.18,23.0,WeatherDisplay:10.37,2013-04-28 23:16:00,
2013-04-28 19:21:00,57.9,55.0,29.89,SE,138,8.4,8.4,90,0.00,OVC,,0.18,25.0,WeatherDisplay:10.37,2013-04-28 23:21:00,
2013-04-28 19:26:00,57.9,55.0,29.88,South,186,7.3,9.2,90,0.00,OVC,,0.18,25.0,WeatherDisplay:10.37,2013-04-28 23:26:00,
2013-04-28 19:31:00,57.8,54.9,29.88,SSW,193,3.2,7.0,90,0.00,OVC,,0.18,28.0,WeatherDisplay:10.37,2013-04-28 23:31:00,
2013-04-28 19:36:00,57.8,54.9,29.88,SSE,150,5.1,11.5,90,0.00,OVC,,0.18,42.0,WeatherDisplay:10.37,2013-04-28 23:36:00,
2013-04-28 19:41:00,57.9,55.0,29.88,SE,132,3.9,7.0,90,0.00,OVC,,0.18,37.0,WeatherDisplay:10.37,2013-04-28 23:41:00,
2013-04-28 19:46:00,57.9,55.0,29.88,South,173,7.1,8.0,90,0.00,OVC,,0.18,25.0,WeatherDisplay:10.37,2013-04-28 23:46:00,
2013-04-28 19:52:00,57.9,55.0,29.88,SSE,158,3.7,10.4,90,0.00,OVC,,0.18,14.0,WeatherDisplay:10.37,2013-04-28 23:52:00,
2013-04-28 19:57:00,57.7,54.8,29.89,South,176,4.5,10.0,90,0.00,OVC,,0.18,9.0,WeatherDisplay:10.37,2013-04-28 23:57:00,
2013-04-28 20:02:00,57.6,54.7,29.89,SSE,163,3.3,5.8,90,0.00,OVC,,0.18,7.0,WeatherDisplay:10.37,2013-04-29 00:02:00,
2013-04-28 20:07:00,57.6,54.7,29.88,SSE,152,5.2,9.2,90,0.00,OVC,,0.18,5.0,WeatherDisplay:10.37,2013-04-29 00:07:00,
2013-04-28 20:12:00,57.5,54.6,29.89,SSE,161,3.0,4.6,90,0.00,OVC,,0.18,0.0,WeatherDisplay:10.37,2013-04-29 00:12:00,
2013-04-28 20:17:00,57.6,54.7,29.88,SSE,168,5.1,8.1,90,0.00,OVC,,0.18,0.0,WeatherDisplay:10.37,2013-04-29 00:17:00,
2013-04-28 20:22:00,57.6,54.7,29.88,ESE,118,6.8,9.2,90,0.00,OVC,,0.18,0.0,WeatherDisplay:10.37,2013-04-29 00:22:00,
2013-04-28 20:27:00,57.6,54.7,29.89,SSE,153,4.8,9.2,90,0.00,OVC,,0.18,0.0,WeatherDisplay:10.37,2013-04-29 00:27:00,
2013-04-28 20:32:00,57.6,54.7,29.89,SSE,163,6.4,10.4,90,0.00,OVC,,0.18,0.0,WeatherDisplay:10.37,2013-04-29 00:32:00,
2013-04-28 20:37:00,57.6,54.7,29.89,SSW,208,4.0,6.9,90,0.00,OVC,,0.18,0.0,WeatherDisplay:10.37,2013-04-29 00:37:00,
2013-04-28 20:42:00,57.6,54.7,29.89,South,185,4.0,9.2,90,0.00,OVC,,0.18,0.0,WeatherDisplay:10.37,2013-04-29 00:42:00,
2013-04-28 20:47:00,57.6,54.7,29.89,SE,146,5.2,9.2,90,0.00,OVC,,0.18,0.0,WeatherDisplay:10.37,2013-04-29 00:47:00,
2013-04-28 20:52:00,57.6,54.7,29.89,South,175,5.6,8.1,90,0.00,OVC,,0.18,0.0,WeatherDisplay:10.37,2013-04-29 00:52:00,
2013-04-28 20:57:00,57.6,54.7,29.88,SSW,193,3.1,7.0,90,0.00,OVC,,0.18,0.0,WeatherDisplay:10.37,2013-04-29 00:57:00,
2013-04-28 21:02:00,57.6,54.7,29.88,SE,142,8.2,11.5,90,0.00,OVC,,0.18,0.0,WeatherDisplay:10.37,2013-04-29 01:02:00,
2013-04-28 21:07:00,57.6,54.7,29.88,South,175,6.3,11.5,90,0.00,OVC,,0.18,0.0,WeatherDisplay:10.37,2013-04-29 01:07:00,
2013-04-28 21:12:00,57.6,54.7,29.88,South,177,8.2,11.5,90,0.00,OVC,,0.18,0.0,WeatherDisplay:10.37,2013-04-29 01:12:00,
2013-04-28 21:17:00,57.5,54.6,29.89,SE,134,4.8,9.2,90,0.00,OVC,,0.18,0.0,WeatherDisplay:10.37,2013-04-29 01:17:00,
2013-04-28 21:22:00,57.4,54.5,29.89,SSE,148,3.9,11.5,90,0.00,OVC,,0.18,0.0,WeatherDisplay:10.37,2013-04-29 01:22:00,
2013-04-28 21:27:00,57.5,54.6,29.89,SSE,155,4.5,10.4,90,0.00,OVC,,0.18,0.0,WeatherDisplay:10.37,2013-04-29 01:27:00,
2013-04-28 21:32:00,57.5,54.6,29.89,SE,146,6.2,11.5,90,0.00,OVC,,0.18,0.0,WeatherDisplay:10.37,2013-04-29 01:32:00,
2013-04-28 21:37:00,57.6,54.7,29.89,SSE,153,3.6,6.9,90,0.00,OVC,,0.18,0.0,WeatherDisplay:10.37,2013-04-29 01:37:00,
2013-04-28 21:42:00,57.7,54.8,29.89,SE,140,3.2,5.8,90,0.00,OVC,,0.18,0.0,WeatherDisplay:10.37,2013-04-29 01:42:00,
2013-04-28 21:47:00,57.7,54.8,29.89,SE,130,3.0,11.0,90,0.00,OVC,,0.18,0.0,WeatherDisplay:10.37,2013-04-29 01:47:00,
2013-04-28 21:52:00,57.7,54.5,29.89,SSE,148,3.5,11.5,89,0.00,OVC,,0.18,0.0,WeatherDisplay:10.37,2013-04-29 01:52:00,
2013-04-28 21:57:00,57.7,54.5,29.89,SSE,153,4.8,7.0,89,0.00,OVC,,0.18,0.0,WeatherDisplay:10.37,2013-04-29 01:57:00,
2013-04-28 22:02:00,57.7,54.5,29.89,SE,143,4.2,6.0,89,0.00,BKN,,0.18,0.0,WeatherDisplay:10.37,2013-04-29 02:02:00,
2013-04-28 22:07:00,57.7,54.5,29.88,SE,146,6.4,11.5,89,0.00,BKN,,0.18,0.0,WeatherDisplay:10.37,2013-04-29 02:07:00,
2013-04-28 22:12:00,57.7,54.5,29.88,SSE,163,5.2,6.9,89,0.00,BKN,,0.18,0.0,WeatherDisplay:10.37,2013-04-29 02:12:00,
2013-04-28 22:17:00,57.7,54.5,29.88,SSE,151,4.4,9.0,89,0.00,BKN,,0.18,0.0,WeatherDisplay:10.37,2013-04-29 02:17:00,
2013-04-28 22:22:00,57.6,54.4,29.89,South,187,3.3,6.9,89,0.00,BKN,,0.18,0.0,WeatherDisplay:10.37,2013-04-29 02:22:00,
2013-04-28 22:27:00,57.5,54.3,29.89,SSE,163,3.3,9.2,89,0.00,BKN,,0.18,0.0,WeatherDisplay:10.37,2013-04-29 02:27:00,
2013-04-28 22:32:00,57.5,54.3,29.89,SSE,155,4.8,8.1,89,0.00,BKN,,0.18,0.0,WeatherDisplay:10.37,2013-04-29 02:32:00,
2013-04-28 22:37:00,57.5,54.3,29.89,SSE,165,2.1,4.6,89,0.00,BKN,,0.18,0.0,WeatherDisplay:10.37,2013-04-29 02:37:00,
2013-04-28 22:42:00,57.4,54.2,29.89,SSE,164,2.6,6.9,89,0.00,BKN,,0.18,0.0,WeatherDisplay:10.37,2013-04-29 02:42:00,
2013-04-28 22:47:00,57.4,54.2,29.88,SSE,150,7.4,10.4,89,0.00,BKN,,0.18,0.0,WeatherDisplay:10.37,2013-04-29 02:47:00,
2013-04-28 22:52:00,57.4,54.2,29.89,SSE,150,4.7,6.9,89,0.00,BKN,,0.18,0.0,WeatherDisplay:10.37,2013-04-29 02:52:00,
2013-04-28 22:57:00,57.5,54.3,29.89,SSE,159,5.9,9.2,89,0.00,BKN,,0.18,0.0,WeatherDisplay:10.37,2013-04-29 02:57:00,
2013-04-28 23:02:00,57.5,54.3,29.89,SSE,150,5.1,8.1,89,0.00,BKN,,0.18,0.0,WeatherDisplay:10.37,2013-04-29 03:02:00,
2013-04-28 23:07:00,57.6,54.4,29.88,SE,134,4.6,5.8,89,0.00,BKN,,0.18,0.0,WeatherDisplay:10.37,2013-04-29 03:07:00,
2013-04-28 23:12:00,57.5,54.6,29.88,SE,129,5.2,8.0,90,0.00,BKN,,0.18,0.0,WeatherDisplay:10.37,2013-04-29 03:12:00,
2013-04-28 23:17:00,57.3,54.4,29.88,SE,141,5.4,8.1,90,0.00,BKN,,0.18,0.0,WeatherDisplay:10.37,2013-04-29 03:17:00,
2013-04-28 23:22:00,57.2,54.3,29.87,South,185,6.9,15.0,90,0.00,BKN,,0.18,0.0,WeatherDisplay:10.37,2013-04-29 03:22:00,
2013-04-28 23:27:00,57.2,54.3,29.87,SE,141,6.9,11.5,90,0.00,BKN,,0.18,0.0,WeatherDisplay:10.37,2013-04-29 03:27:00,
2013-04-28 23:32:00,57.2,54.3,29.87,SSE,153,5.9,10.4,90,0.00,BKN,,0.18,0.0,WeatherDisplay:10.37,2013-04-29 03:32:00,
2013-04-28 23:37:00,57.2,54.3,29.87,South,181,9.7,15.0,90,0.00,BKN,,0.18,0.0,WeatherDisplay:10.37,2013-04-29 03:37:00,
2013-04-28 23:42:00,57.1,54.2,29.87,SSE,162,7.4,11.5,90,0.00,BKN,,0.18,0.0,WeatherDisplay:10.37,2013-04-29 03:42:00,
2013-04-28 23:47:00,57.1,54.2,29.87,SSE,163,3.3,4.6,90,0.00,BKN,,0.18,0.0,WeatherDisplay:10.37,2013-04-29 03:47:00,
2013-04-28 23:52:00,57.0,54.1,29.87,SSE,159,10.0,17.3,90,0.00,BKN,,0.18,0.0,WeatherDisplay:10.37,2013-04-29 03:52:00,
2013-04-28 23:57:00,57.0,54.1,29.87,SSE,163,4.9,5.8,90,0.00,BKN,,0.18,0.0,WeatherDisplay:10.37,2013-04-29 03:57:00,